KOEO/OEO METAR and TAF weather

Enter ICAO airport designator
Station Type Date Time Source
KOEO METAR 2019/06/16 20:35 UTC NOAA

KOEO 162035Z AUTO 13004KT 10SM CLR 22/11 A2992 RMK AO2 T02190106


Station Type Date Time Source
KOEO Decoded METAR 2019/06/16 20:35 UTC NOAA

Osceola, L O Simenstad Municipal Airport, WI, United States (KOEO) 45-18-31N 092-41-24W
Jun 16, 2019 - 04:35 PM EDT / 2019.06.16 2035 UTC
Wind: from the SE (130 degrees) at 5 MPH (4 KT):0
Visibility: 10 mile(s):0
Sky conditions: clear
Temperature: 71.4 F (21.9 C)
Dew Point: 51.1 F (10.6 C)
Relative Humidity: 48%
Pressure (altimeter): 29.92 in. Hg (1013 hPa)
ob: KOEO 162035Z AUTO 13004KT 10SM CLR 22/11 A2992 RMK AO2 T02190106
cycle: 20

Station Type Date Time Source
KOEO TAF UTC NOAA

Error!

Example: see airport list